OIKQ  Dayrestan  Airport

Iran

Add Bookmark
ICAO OIKQ
Type Airport
Status Operational
Latitude
26° 45' 16" N
26.754601
Longitude
55° 54' 8" E
55.902401
Local (DST + 5) UTC (GMT + 4)
Feb 12, 2016 11:51 Feb 12, 2016 20:21
Sunrise-Sunset Local UTC
Begin Civil Twilight 05:59 02:29
Sunrise 06:23 02:53
Sunset 05:37 14:07
End Civil Twilight 06:01 14:31
VFR
VFR
MVFR
MVFR
IFR
IFR
LIFR
LIFR
Unknown
Unavailable

Current Weather

METAR Observed VFR
OIKQ 121800Z 30006KT CAVOK 17/09 Q1017 Fri, Feb 12, 2016 @ 18:00 UTC
(2 Hours, 21 Minutes ago)
Visual Flight Rules
Wind Visibility Conditions
300° at 6 knots (11 kph) 10 km or more
  • No significant weather
Temperatures Readings Precipitation
Current Temp
17°C
63°F
Dewpoint
9°C
48°F
Humidity 59%
Altimeter 30.03" Hg
Sea Level Pressure 1,017 mb
Field Elevation
12 m
39 ft
None Recorded

Additional weather within a 92.6km radius of OIKQ

Map ICAO Location
OIKB 69.8km NE (042°)
VFR
VFR
MVFR
MVFR
IFR
IFR
LIFR
LIFR
Unknown
Unavailable
-
-

CheckWX.com is intended as a tool to help pilots better visualize weather data. It is not intended as a substitute for an official weather briefing obtained from a Flight Service Station. CheckWX.com does not meet the FAA requirements for an official pre-flight weather briefing. Therefore, it's important that pilots still call and obtain an official FSS pre-flight weather briefing.

© 2007-2016 CheckWX.com
20:21:40 UTC